createdAt,value
2018-08-11T00:00:22.849Z,63.38
2018-08-11T00:02:50.456Z,63.55
2018-08-11T00:05:18.126Z,63.03
2018-08-11T00:07:46.311Z,61.95
2018-08-11T00:10:13.847Z,61.72
2018-08-11T00:12:41.402Z,62.40
2018-08-11T00:15:10.731Z,61.97
2018-08-11T00:17:38.642Z,61.52
2018-08-11T00:20:07.350Z,62.21
2018-08-11T00:22:34.892Z,61.97
2018-08-11T00:25:02.470Z,62.28
2018-08-11T00:27:30.881Z,62.33
2018-08-11T00:29:59.330Z,62.24
2018-08-11T00:32:26.870Z,62.52
2018-08-11T00:34:54.410Z,61.80
2018-08-11T00:37:22.045Z,61.38
2018-08-11T00:39:49.599Z,61.18
2018-08-11T00:42:17.439Z,61.32
2018-08-11T00:44:45.051Z,61.17
2018-08-11T00:47:12.673Z,61.54
2018-08-11T00:49:40.239Z,61.62
2018-08-11T00:52:07.804Z,61.92
2018-08-11T00:54:35.378Z,62.37
2018-08-11T00:57:03.037Z,62.88
2018-08-11T00:59:30.594Z,62.71
2018-08-11T01:01:58.186Z,62.70
2018-08-11T01:04:26.022Z,63.10
2018-08-11T01:06:53.590Z,62.91
2018-08-11T01:09:21.119Z,62.73
2018-08-11T01:11:48.698Z,62.75
2018-08-11T01:14:16.308Z,62.95
2018-08-11T01:16:43.879Z,62.57
2018-08-11T01:19:11.430Z,62.83
2018-08-11T01:21:38.986Z,62.41
2018-08-11T01:24:06.537Z,62.48
2018-08-11T01:26:34.116Z,62.52
2018-08-11T01:29:01.667Z,62.51
2018-08-11T01:31:29.207Z,62.53
2018-08-11T01:33:57.084Z,62.84
2018-08-11T01:36:24.675Z,63.47
2018-08-11T01:38:52.258Z,62.88
2018-08-11T01:41:19.789Z,63.05
2018-08-11T01:43:47.328Z,63.08
2018-08-11T01:46:14.881Z,63.37
2018-08-11T01:48:42.575Z,63.11
2018-08-11T01:51:10.094Z,63.63
2018-08-11T01:53:37.618Z,63.31
2018-08-11T01:56:05.193Z,63.90
2018-08-11T01:58:33.386Z,64.04
2018-08-11T02:01:01.270Z,64.92
2018-08-11T02:03:28.807Z,64.84
2018-08-11T02:05:56.378Z,64.52
2018-08-11T02:08:25.073Z,63.08
2018-08-11T02:10:52.622Z,63.95
2018-08-11T02:13:20.185Z,64.25
2018-08-11T02:15:47.788Z,63.66
2018-08-11T02:18:15.305Z,63.79
2018-08-11T02:20:42.851Z,64.18
2018-08-11T02:23:10.375Z,64.34
2018-08-11T02:25:37.923Z,64.50
2018-08-11T02:28:05.511Z,64.56
2018-08-11T02:30:33.035Z,64.20
2018-08-11T02:33:00.612Z,64.98
2018-08-11T02:35:28.464Z,65.18
2018-08-11T02:37:56.010Z,64.87
2018-08-11T02:40:23.555Z,65.88
2018-08-11T02:42:51.108Z,64.90
2018-08-11T02:45:18.631Z,65.11
2018-08-11T02:47:46.834Z,64.81
2018-08-11T02:50:14.456Z,65.75
2018-08-11T02:52:42.248Z,66.14
2018-08-11T02:55:09.978Z,66.74
2018-08-11T02:57:37.533Z,66.39
2018-08-11T03:00:06.059Z,66.72
2018-08-11T03:02:33.657Z,66.50
2018-08-11T03:05:01.122Z,66.22
2018-08-11T03:07:28.662Z,64.99
2018-08-11T03:09:56.205Z,65.91
2018-08-11T03:12:23.725Z,65.35
2018-08-11T03:14:51.403Z,66.28
2018-08-11T03:17:18.922Z,65.86
2018-08-11T03:19:46.458Z,64.95
2018-08-11T03:22:14.019Z,65.02
2018-08-11T03:24:41.535Z,65.31
2018-08-11T03:27:09.075Z,65.07
2018-08-11T03:29:36.612Z,66.12
2018-08-11T03:32:04.179Z,66.23
2018-08-11T03:34:31.682Z,66.89
2018-08-11T03:36:59.206Z,66.01
2018-08-11T03:39:26.743Z,65.28
2018-08-11T03:41:54.258Z,65.27
2018-08-11T03:44:21.803Z,65.42
2018-08-11T03:46:49.362Z,65.42
2018-08-11T03:49:16.945Z,65.42
2018-08-11T03:51:44.486Z,65.91
2018-08-11T03:54:11.993Z,66.02
2018-08-11T03:56:39.485Z,65.79
2018-08-11T03:59:07.050Z,65.43
2018-08-11T04:01:34.558Z,64.49
2018-08-11T04:04:02.108Z,64.85
2018-08-11T04:06:29.675Z,64.63
2018-08-11T04:08:57.182Z,64.87
2018-08-11T04:11:24.732Z,64.36
2018-08-11T04:13:52.273Z,64.02
2018-08-11T04:16:19.882Z,63.68
2018-08-11T04:18:47.414Z,64.00
2018-08-11T04:21:14.949Z,63.38
2018-08-11T04:23:42.480Z,63.87
2018-08-11T04:26:10.007Z,63.90
2018-08-11T04:28:37.562Z,63.71
2018-08-11T04:31:05.134Z,63.31
2018-08-11T04:33:32.657Z,63.75
2018-08-11T04:36:00.197Z,62.98
2018-08-11T04:38:27.806Z,63.62
2018-08-11T04:40:55.384Z,63.69
2018-08-11T04:43:22.910Z,63.00
2018-08-11T04:45:50.421Z,63.35
2018-08-11T04:48:17.961Z,63.79
2018-08-11T04:50:45.477Z,63.75
2018-08-11T04:53:13.242Z,64.38
2018-08-11T04:55:40.861Z,63.85
2018-08-11T04:58:08.513Z,63.41
2018-08-11T05:00:36.053Z,62.52
2018-08-11T05:03:03.594Z,61.19
2018-08-11T05:05:31.121Z,61.32
2018-08-11T05:07:58.723Z,60.88
2018-08-11T05:10:26.297Z,60.73
2018-08-11T05:12:54.872Z,60.18
2018-08-11T05:15:22.398Z,58.33
2018-08-11T05:17:49.966Z,58.26
2018-08-11T05:20:17.539Z,58.31
2018-08-11T05:22:45.084Z,56.85
2018-08-11T05:25:12.611Z,56.19
2018-08-11T05:27:40.147Z,55.61
2018-08-11T05:30:08.256Z,55.93
2018-08-11T05:32:35.989Z,54.99
2018-08-11T05:35:04.088Z,54.30
2018-08-11T05:37:31.597Z,54.00
2018-08-11T05:39:59.429Z,54.68
2018-08-11T05:42:26.947Z,53.88
2018-08-11T05:44:54.490Z,54.07
2018-08-11T05:47:22.067Z,53.28
2018-08-11T05:49:49.605Z,53.03
2018-08-11T05:52:17.161Z,52.50
2018-08-11T05:54:44.677Z,51.80
2018-08-11T05:57:12.225Z,50.66
2018-08-11T05:59:39.793Z,48.52
2018-08-11T06:02:07.399Z,47.60
2018-08-11T06:04:34.926Z,46.25
2018-08-11T06:07:02.622Z,46.29
2018-08-11T06:09:30.199Z,45.51
2018-08-11T06:11:57.705Z,44.54
2018-08-11T06:14:25.283Z,43.36
2018-08-11T06:16:52.841Z,42.66
2018-08-11T06:19:20.402Z,41.90
2018-08-11T06:21:47.949Z,41.82
2018-08-11T06:24:15.519Z,41.61
2018-08-11T06:26:43.070Z,41.13
2018-08-11T06:29:10.729Z,42.10
2018-08-11T06:31:38.425Z,40.20
2018-08-11T06:34:05.839Z,39.28
2018-08-11T06:36:33.414Z,39.42
2018-08-11T06:39:00.942Z,39.17
2018-08-11T06:41:28.827Z,38.48
2018-08-11T06:43:56.427Z,37.35
2018-08-11T06:46:23.934Z,37.57
2018-08-11T06:48:51.774Z,36.53
2018-08-11T06:51:19.373Z,36.09
2018-08-11T06:53:46.928Z,34.86
2018-08-11T06:56:14.792Z,34.95
2018-08-11T06:58:42.327Z,35.08
2018-08-11T07:01:09.875Z,33.64
2018-08-11T07:03:37.676Z,33.65
2018-08-11T07:06:05.220Z,32.35
2018-08-11T07:08:32.799Z,31.53
2018-08-11T07:11:00.333Z,30.85
2018-08-11T07:13:27.885Z,31.65
2018-08-11T07:15:55.449Z,29.65
2018-08-11T07:18:23.038Z,30.16
2018-08-11T07:20:50.584Z,29.51
2018-08-11T07:23:18.346Z,28.29
2018-08-11T07:25:45.904Z,28.63
2018-08-11T07:28:13.476Z,27.52
2018-08-11T07:30:41.005Z,27.11
2018-08-11T07:33:08.554Z,26.22
2018-08-11T07:35:36.447Z,26.03
2018-08-11T07:38:04.048Z,26.43
2018-08-11T07:40:31.618Z,26.02
2018-08-11T07:42:59.191Z,26.64
2018-08-11T07:45:26.730Z,27.23
2018-08-11T07:47:54.254Z,28.00
2018-08-11T07:50:21.857Z,26.46
2018-08-11T07:52:49.382Z,25.86
2018-08-11T07:55:17.221Z,25.84
2018-08-11T07:57:44.780Z,23.41
2018-08-11T08:00:12.415Z,23.04
2018-08-11T08:02:40.650Z,20.96
2018-08-11T08:05:08.228Z,22.04
2018-08-11T08:07:35.772Z,21.33
2018-08-11T08:10:03.948Z,21.87
2018-08-11T08:12:31.483Z,20.23
2018-08-11T08:14:59.062Z,19.25
2018-08-11T08:17:26.605Z,19.45
2018-08-11T08:19:54.178Z,20.26
2018-08-11T08:22:21.704Z,19.38
2018-08-11T08:24:49.331Z,18.18
2018-08-11T08:27:16.882Z,18.43
2018-08-11T08:29:44.450Z,18.50
2018-08-11T08:32:12.002Z,18.36
2018-08-11T08:34:39.562Z,17.82
2018-08-11T08:37:07.069Z,18.82
2018-08-11T08:39:34.577Z,18.64
2018-08-11T08:42:02.479Z,19.06
2018-08-11T08:44:30.018Z,18.18
2018-08-11T08:46:57.554Z,17.67
2018-08-11T08:49:25.126Z,17.07
2018-08-11T08:51:52.666Z,17.25
2018-08-11T08:54:20.290Z,16.46
2018-08-11T08:56:47.849Z,15.98
2018-08-11T08:59:15.434Z,17.37
2018-08-11T09:01:42.966Z,17.25
2018-08-11T09:04:10.523Z,16.27
2018-08-11T09:06:38.101Z,16.07
2018-08-11T09:09:06.970Z,15.73
2018-08-11T09:11:35.467Z,15.62
2018-08-11T09:14:03.019Z,15.53
2018-08-11T09:16:30.861Z,15.65
2018-08-11T09:18:58.936Z,16.26
2018-08-11T09:21:26.486Z,15.88
2018-08-11T09:23:54.175Z,15.99
2018-08-11T09:26:21.710Z,16.41
2018-08-11T09:28:49.248Z,16.19
2018-08-11T09:31:16.790Z,16.18
2018-08-11T09:33:44.453Z,15.45
2018-08-11T09:36:11.994Z,16.20
2018-08-11T09:38:39.536Z,17.45
2018-08-11T09:41:07.342Z,18.78
2018-08-11T09:43:35.162Z,18.51
2018-08-11T09:46:02.803Z,17.77
2018-08-11T09:48:30.358Z,16.78
2018-08-11T09:50:57.890Z,17.53
2018-08-11T09:53:25.410Z,18.77
2018-08-11T09:55:52.927Z,19.20
2018-08-11T09:58:20.481Z,19.39
2018-08-11T10:00:53.336Z,19.17
2018-08-11T10:03:21.082Z,17.14
2018-08-11T10:05:48.619Z,17.21
2018-08-11T10:08:16.187Z,16.68
2018-08-11T10:10:44.697Z,16.72
2018-08-11T10:13:12.270Z,15.91
2018-08-11T10:15:39.806Z,15.33
2018-08-11T10:18:07.349Z,15.44
2018-08-11T10:20:34.861Z,16.06
2018-08-11T10:23:02.491Z,14.40
2018-08-11T10:25:30.055Z,15.10
2018-08-11T10:27:57.629Z,15.44
2018-08-11T10:30:25.174Z,15.74
2018-08-11T10:32:52.714Z,15.53
2018-08-11T10:35:20.237Z,16.05
2018-08-11T10:37:47.774Z,15.79
2018-08-11T10:40:15.382Z,14.78
2018-08-11T10:42:43.061Z,15.51
2018-08-11T10:45:10.587Z,16.52
2018-08-11T10:47:38.135Z,17.62
2018-08-11T10:50:06.707Z,18.00
2018-08-11T10:52:34.421Z,18.77
2018-08-11T10:55:01.960Z,19.02
2018-08-11T10:57:29.511Z,20.03
2018-08-11T10:59:58.283Z,20.71
2018-08-11T11:02:25.839Z,20.32
2018-08-11T11:04:53.376Z,20.00
2018-08-11T11:07:20.941Z,19.68
2018-08-11T11:09:48.462Z,19.81
2018-08-11T11:12:16.010Z,19.85
2018-08-11T11:14:43.551Z,19.46
2018-08-11T11:17:11.085Z,20.15
2018-08-11T11:19:38.622Z,19.82
2018-08-11T11:22:07.367Z,19.29
2018-08-11T11:24:34.906Z,19.46
2018-08-11T11:27:02.449Z,19.82
2018-08-11T11:29:29.993Z,19.78
2018-08-11T11:31:57.597Z,19.85
2018-08-11T11:34:25.147Z,20.42
2018-08-11T11:36:52.710Z,19.87
2018-08-11T11:39:20.302Z,19.49
2018-08-11T11:41:47.877Z,19.91
2018-08-11T11:44:15.416Z,19.90
2018-08-11T11:46:42.958Z,19.28
2018-08-11T11:49:10.505Z,20.93
2018-08-11T11:51:38.042Z,20.91
2018-08-11T11:54:05.850Z,20.45
2018-08-11T11:56:33.399Z,21.47
2018-08-11T11:59:00.985Z,22.28
2018-08-11T12:01:28.551Z,20.25
2018-08-11T12:03:56.089Z,22.16
2018-08-11T12:06:24.731Z,21.61
2018-08-11T12:08:52.985Z,21.47
2018-08-11T12:11:20.625Z,22.20
2018-08-11T12:13:48.298Z,21.65
2018-08-11T12:16:15.936Z,22.71
2018-08-11T12:18:43.845Z,22.03
2018-08-11T12:21:11.898Z,21.98
2018-08-11T12:23:39.458Z,22.35
2018-08-11T12:26:07.029Z,22.77
2018-08-11T12:28:34.566Z,22.32
2018-08-11T12:31:02.212Z,23.04
2018-08-11T12:33:29.683Z,22.38
2018-08-11T12:35:57.276Z,22.21
2018-08-11T12:38:24.847Z,23.72
2018-08-11T12:40:52.384Z,23.74
2018-08-11T12:43:19.998Z,22.74
2018-08-11T12:45:47.541Z,22.38
2018-08-11T12:48:15.482Z,22.67
2018-08-11T12:50:43.031Z,24.00
2018-08-11T12:53:10.576Z,23.54
2018-08-11T12:55:38.140Z,24.28
2018-08-11T12:58:05.882Z,23.79
2018-08-11T13:00:33.474Z,24.33
2018-08-11T13:03:00.993Z,24.46
2018-08-11T13:05:28.497Z,24.52
2018-08-11T13:07:56.048Z,25.12
2018-08-11T13:10:23.703Z,23.93
2018-08-11T13:12:51.267Z,24.28
2018-08-11T13:15:18.819Z,24.88
2018-08-11T13:17:46.396Z,25.21
2018-08-11T13:20:13.922Z,25.00
2018-08-11T13:22:41.619Z,24.73
2018-08-11T13:25:09.237Z,25.73
2018-08-11T13:27:36.767Z,27.23
2018-08-11T13:30:04.822Z,26.13
2018-08-11T13:32:33.352Z,24.99
2018-08-11T13:35:00.994Z,25.69
2018-08-11T13:37:28.546Z,27.34
2018-08-11T13:39:56.094Z,26.72
2018-08-11T13:42:23.680Z,26.89
2018-08-11T13:44:51.250Z,25.86
2018-08-11T13:47:18.851Z,25.75
2018-08-11T13:49:46.495Z,25.11
2018-08-11T13:52:13.967Z,25.92
2018-08-11T13:54:41.523Z,26.52
2018-08-11T13:57:09.135Z,25.80
2018-08-11T13:59:36.726Z,25.46
2018-08-11T14:02:04.289Z,25.53
2018-08-11T14:04:32.070Z,26.70
2018-08-11T14:06:59.642Z,27.59
2018-08-11T14:09:27.208Z,26.89
2018-08-11T14:11:54.795Z,27.49
2018-08-11T14:14:22.386Z,26.86
2018-08-11T14:16:49.940Z,26.73
2018-08-11T14:19:17.682Z,26.10
2018-08-11T14:21:45.205Z,26.79
2018-08-11T14:24:12.758Z,25.21
2018-08-11T14:26:40.294Z,25.55
2018-08-11T14:29:07.849Z,25.09
2018-08-11T14:31:35.551Z,26.40
2018-08-11T14:34:03.165Z,26.16
2018-08-11T14:36:30.728Z,25.71
2018-08-11T14:38:58.497Z,25.29
2018-08-11T14:41:26.058Z,24.56
2018-08-11T14:43:53.881Z,25.91
2018-08-11T14:46:21.460Z,26.80
2018-08-11T14:48:49.018Z,26.33
2018-08-11T14:51:16.574Z,27.03
2018-08-11T14:53:44.322Z,26.36
2018-08-11T14:56:12.056Z,26.03
2018-08-11T14:58:39.771Z,26.74
2018-08-11T15:01:07.369Z,26.85
2018-08-11T15:03:34.974Z,27.36
2018-08-11T15:06:02.508Z,27.21
2018-08-11T15:08:30.746Z,26.87
2018-08-11T15:10:58.311Z,25.83
2018-08-11T15:13:25.869Z,26.74
2018-08-11T15:15:53.431Z,27.51
2018-08-11T15:18:20.990Z,26.82
2018-08-11T15:20:48.798Z,27.19
2018-08-11T15:23:16.413Z,26.98
2018-08-11T15:25:43.961Z,27.56
2018-08-11T15:28:11.514Z,26.68
2018-08-11T15:30:39.037Z,26.35
2018-08-11T15:33:06.587Z,26.25
2018-08-11T15:35:34.094Z,27.01
2018-08-11T15:38:01.703Z,27.35
2018-08-11T15:40:29.479Z,26.47
2018-08-11T15:42:57.020Z,26.71
2018-08-11T15:45:24.602Z,26.90
2018-08-11T15:47:52.178Z,26.82
2018-08-11T15:50:19.828Z,26.90
2018-08-11T15:52:47.362Z,26.74
2018-08-11T15:55:14.871Z,27.16
2018-08-11T15:57:42.670Z,27.53
2018-08-11T16:00:10.199Z,26.71
2018-08-11T16:02:38.046Z,26.42
2018-08-11T16:05:06.351Z,25.75
2018-08-11T16:07:34.183Z,26.73
2018-08-11T16:10:01.748Z,26.43
2018-08-11T16:12:29.345Z,27.43
2018-08-11T16:14:56.912Z,26.50
2018-08-11T16:17:24.498Z,27.33
2018-08-11T16:19:52.706Z,27.45
2018-08-11T16:22:20.245Z,28.46
2018-08-11T16:24:47.850Z,28.68
2018-08-11T16:27:15.417Z,28.13
2018-08-11T16:29:43.230Z,28.23
2018-08-11T16:32:11.969Z,27.28
2018-08-11T16:34:39.535Z,28.28
2018-08-11T16:37:07.142Z,28.29
2018-08-11T16:39:34.708Z,27.91
2018-08-11T16:42:02.246Z,28.72
2018-08-11T16:44:30.041Z,28.73
2018-08-11T16:46:57.586Z,27.79
2018-08-11T16:49:25.164Z,28.58
2018-08-11T16:51:52.746Z,27.94
2018-08-11T16:54:20.306Z,28.10
2018-08-11T16:56:47.849Z,27.97
2018-08-11T16:59:15.404Z,27.83
2018-08-11T17:01:42.938Z,28.43
2018-08-11T17:04:10.498Z,28.36
2018-08-11T17:06:38.062Z,28.66
2018-08-11T17:09:06.879Z,28.71
2018-08-11T17:11:34.433Z,28.56
2018-08-11T17:14:02.022Z,28.51
2018-08-11T17:16:29.570Z,28.44
2018-08-11T17:18:57.238Z,28.50
2018-08-11T17:21:24.763Z,29.24
2018-08-11T17:23:52.633Z,29.17
2018-08-11T17:26:20.163Z,29.12
2018-08-11T17:28:47.698Z,29.49
2018-08-11T17:31:15.266Z,29.43
2018-08-11T17:33:42.821Z,29.55
2018-08-11T17:36:10.371Z,29.76
2018-08-11T17:38:37.965Z,30.29
2018-08-11T17:41:05.950Z,29.69
2018-08-11T17:43:33.498Z,29.67
2018-08-11T17:46:01.050Z,30.40
2018-08-11T17:48:28.595Z,30.42
2018-08-11T17:50:56.120Z,30.50
2018-08-11T17:53:23.687Z,30.68
2018-08-11T17:55:51.213Z,31.20
2018-08-11T17:58:18.758Z,30.71
2018-08-11T18:00:46.738Z,30.54
2018-08-11T18:03:14.273Z,30.89
2018-08-11T18:05:41.835Z,30.96
2018-08-11T18:08:09.730Z,31.13
2018-08-11T18:10:37.269Z,31.58
2018-08-11T18:13:04.821Z,31.26
2018-08-11T18:15:32.398Z,31.77
2018-08-11T18:17:59.998Z,32.07
2018-08-11T18:20:27.526Z,32.12
2018-08-11T18:22:55.081Z,31.76
2018-08-11T18:25:22.715Z,32.07
2018-08-11T18:27:50.270Z,32.16
2018-08-11T18:30:18.973Z,32.70
2018-08-11T18:32:46.525Z,32.88
2018-08-11T18:35:14.090Z,32.53
2018-08-11T18:37:41.643Z,33.02
2018-08-11T18:40:09.211Z,32.54
2018-08-11T18:42:36.789Z,33.00
2018-08-11T18:45:04.490Z,33.69
2018-08-11T18:47:32.100Z,33.97
2018-08-11T18:49:59.678Z,34.07
2018-08-11T18:52:27.297Z,34.69
2018-08-11T18:54:54.872Z,35.12
2018-08-11T18:57:22.434Z,35.55
2018-08-11T18:59:50.001Z,35.79
2018-08-11T19:02:17.541Z,36.35
2018-08-11T19:04:45.269Z,36.77
2018-08-11T19:07:12.841Z,37.49
2018-08-11T19:09:40.397Z,38.17
2018-08-11T19:12:07.929Z,37.75
2018-08-11T19:14:35.522Z,38.17
2018-08-11T19:17:03.109Z,38.35
2018-08-11T19:19:30.744Z,39.19
2018-08-11T19:21:58.374Z,39.69
2018-08-11T19:24:25.955Z,38.87
2018-08-11T19:26:53.634Z,38.80
2018-08-11T19:29:21.202Z,38.93
2018-08-11T19:31:48.824Z,39.89
2018-08-11T19:34:16.354Z,40.43
2018-08-11T19:36:43.944Z,40.45
2018-08-11T19:39:12.265Z,39.57
2018-08-11T19:41:40.331Z,40.16
2018-08-11T19:44:08.162Z,40.41
2018-08-11T19:46:35.845Z,41.63
2018-08-11T19:49:03.707Z,42.12
2018-08-11T19:51:31.251Z,41.98
2018-08-11T19:53:58.850Z,41.49
2018-08-11T19:56:26.446Z,41.32
2018-08-11T19:58:54.001Z,41.90
2018-08-11T20:01:21.615Z,42.48
2018-08-11T20:03:49.174Z,43.04
2018-08-11T20:06:16.762Z,42.96
2018-08-11T20:08:44.306Z,43.25
2018-08-11T20:11:11.871Z,42.83
2018-08-11T20:13:39.497Z,42.30
2018-08-11T20:16:07.071Z,43.12
2018-08-11T20:18:34.621Z,44.20
2018-08-11T20:21:02.205Z,44.80
2018-08-11T20:23:29.797Z,45.25
2018-08-11T20:25:57.351Z,45.08
2018-08-11T20:28:24.929Z,45.64
2018-08-11T20:30:52.930Z,45.95
2018-08-11T20:33:20.478Z,45.87
2018-08-11T20:35:48.074Z,46.65
2018-08-11T20:38:16.000Z,46.88
2018-08-11T20:40:43.560Z,46.48
2018-08-11T20:43:11.097Z,46.43
2018-08-11T20:45:38.689Z,46.28
2018-08-11T20:48:06.553Z,46.75
2018-08-11T20:50:34.122Z,46.14
2018-08-11T20:53:01.737Z,47.54
2018-08-11T20:55:29.461Z,47.01
2018-08-11T20:57:57.062Z,47.87
2018-08-11T21:00:24.677Z,47.40
2018-08-11T21:02:52.264Z,47.73
2018-08-11T21:05:19.885Z,47.67
2018-08-11T21:07:47.483Z,47.42
2018-08-11T21:10:15.385Z,47.92
2018-08-11T21:12:43.282Z,47.52
2018-08-11T21:15:11.515Z,47.45
2018-08-11T21:17:39.159Z,48.27
2018-08-11T21:20:08.028Z,47.97
2018-08-11T21:22:35.646Z,48.36
2018-08-11T21:25:03.884Z,47.89
2018-08-11T21:27:31.518Z,48.31
2018-08-11T21:29:59.062Z,48.77
2018-08-11T21:32:26.673Z,48.68
2018-08-11T21:34:54.214Z,48.25
2018-08-11T21:37:21.937Z,48.93
2018-08-11T21:39:49.509Z,49.19
2018-08-11T21:42:17.078Z,48.90
2018-08-11T21:44:44.698Z,48.57
2018-08-11T21:47:12.230Z,49.26
2018-08-11T21:49:39.778Z,49.85
2018-08-11T21:52:07.394Z,50.20
2018-08-11T21:54:34.969Z,49.96
2018-08-11T21:57:02.560Z,49.96
2018-08-11T21:59:30.147Z,50.25
2018-08-11T22:01:57.720Z,49.97
2018-08-11T22:04:29.878Z,50.58
2018-08-11T22:06:57.766Z,51.01
2018-08-11T22:09:25.332Z,50.89
2018-08-11T22:11:52.967Z,51.37
2018-08-11T22:14:20.586Z,51.32
2018-08-11T22:16:48.127Z,52.13
2018-08-11T22:19:15.750Z,52.44
2018-08-11T22:21:43.308Z,52.61
2018-08-11T22:24:10.871Z,52.96
2018-08-11T22:26:38.474Z,52.86
2018-08-11T22:29:06.019Z,52.94
2018-08-11T22:31:33.627Z,53.96
2018-08-11T22:34:01.239Z,54.82
2018-08-11T22:36:28.802Z,54.30
2018-08-11T22:38:56.457Z,55.12
2018-08-11T22:41:23.990Z,54.79
2018-08-11T22:43:51.534Z,55.21
2018-08-11T22:46:19.189Z,54.23
2018-08-11T22:48:46.757Z,55.02
2018-08-11T22:51:14.346Z,54.78
2018-08-11T22:53:41.910Z,55.06
2018-08-11T22:56:09.544Z,54.72
2018-08-11T22:58:37.109Z,55.12
2018-08-11T23:01:04.719Z,54.02
2018-08-11T23:03:32.575Z,54.78
2018-08-11T23:06:00.187Z,54.82
2018-08-11T23:08:27.726Z,55.38
2018-08-11T23:10:55.280Z,55.52
2018-08-11T23:13:22.855Z,56.01
2018-08-11T23:15:50.431Z,56.11
2018-08-11T23:18:17.961Z,56.41
2018-08-11T23:20:45.547Z,56.66
2018-08-11T23:23:13.114Z,55.74
2018-08-11T23:25:40.737Z,56.21
2018-08-11T23:28:08.329Z,56.29
2018-08-11T23:30:35.905Z,55.26
2018-08-11T23:33:03.510Z,56.05
2018-08-11T23:35:31.078Z,57.16
2018-08-11T23:37:58.682Z,56.06
2018-08-11T23:40:26.194Z,56.86
2018-08-11T23:42:54.103Z,56.88
2018-08-11T23:45:21.639Z,57.98
2018-08-11T23:47:49.183Z,57.63
2018-08-11T23:50:16.734Z,57.79
2018-08-11T23:52:44.714Z,57.97
2018-08-11T23:55:12.926Z,58.08
2018-08-11T23:57:40.753Z,57.88
